John_paul K — PBHY — position and weather

sailwx.info

Track history (hours):
 
Tides and Currents Weather Stations Pressure Air Temp Water Temp Dewpoint Dewpoint Depression Visibility Wind Speed Wind Dir Waves Ship Positions

John_paul K

Last reported at 2014-Jul-30 10:12 UTC. Time now 2014-Jul-30 11:06 UTC.
Position N 50°21' W 000°57'.

Length 90 m; draft 4.9 m.

Type: Cargo ship. MMSI: 245181000.

Date/timePositionNaut miles runAvg speedWind from/ knotsBaromVisibWave heightAir tempDewpointWater temp
2014-Jul-30 10:12N 50°21' W 000°57'51 9.0
2014-Jul-30 04:33N 50°36' E 000°19'1010.3
2014-Jul-30 03:33N 50°39' E 000°34'10 9.5
2014-Jul-30 02:34N 50°44' E 000°47'8 8.3
2014-Jul-30 01:33N 50°49' E 000°58'8 7.5
2014-Jul-30 00:33N 50°54' E 001°07'8 7.8
2014-Jul-29 23:34N 50°59' E 001°16'9 9.3
2014-Jul-29 22:33N 51°05' E 001°28'1211.8
2014-Jul-29 21:33N 51°12' E 001°42'1211.7
2014-Jul-29 20:33N 51°21' E 001°55'8 8.2
2014-Jul-29 19:33N 51°23' E 002°08'9 9.3
2014-Jul-29 18:33N 51°22' E 002°22'2020.3
2014-Jul-29 17:33N 51°22' E 002°55'1 1.3
2014-Jul-29 16:32N 51°22' E 002°53'1212.1
2014-Jul-29 15:32N 51°23' E 003°12'9 8.8
2014-Jul-29 14:33N 51°24' E 003°26'8 7.9
2014-Jul-29 13:33N 51°25' E 003°38'8 8.5
2014-Jul-29 12:33N 51°20' E 003°49'1 1.5
2014-Jul-29 11:33N 51°18' E 003°50'7 6.7
2014-Jul-29 10:33N 51°12' E 003°48'3 2.5
2014-Jul-29 09:19N 51°09' E 003°48'0 0.0
2014-Jul-29 08:31N 51°09' E 003°48'0 0.0
2014-Jul-29 07:19N 51°09' E 003°48'0 0.0
2014-Jul-29 06:25N 51°09' E 003°48'0 0.0
2014-Jul-29 05:33N 51°09' E 003°48'0 0.0
2014-Jul-29 04:32N 51°09' E 003°48'0 0.0
2014-Jul-29 03:32N 51°09' E 003°48'0 0.0
2014-Jul-29 02:32N 51°09' E 003°48'0 0.0
2014-Jul-29 01:32N 51°09' E 003°48'0 0.0
2014-Jul-29 00:29N 51°09' E 003°48'0 0.0
2014-Jul-28 23:26N 51°09' E 003°48'0 0.0
2014-Jul-28 22:23N 51°09' E 003°48'0 0.0
2014-Jul-28 21:28N 51°09' E 003°48'0 0.0
2014-Jul-28 20:29N 51°09' E 003°48'0 0.0
2014-Jul-28 19:28N 51°09' E 003°48'0 0.0
2014-Jul-28 18:22N 51°09' E 003°48'0 0.0
2014-Jul-28 17:22N 51°09' E 003°48'0 0.0
2014-Jul-28 16:31N 51°09' E 003°48'0 0.0
2014-Jul-28 15:31N 51°09' E 003°48'0 0.0
2014-Jul-28 14:22N 51°09' E 003°48'0 0.0
2014-Jul-28 13:22N 51°09' E 003°48'0 0.0
2014-Jul-28 12:31N 51°09' E 003°48'0 0.0
2014-Jul-28 11:33N 51°09' E 003°48'0 0.0
2014-Jul-28 09:28N 51°09' E 003°48'0 0.0
2014-Jul-28 08:28N 51°09' E 003°48'0 0.0
2014-Jul-28 07:33N 51°09' E 003°48'0 0.0
2014-Jul-28 06:15N 51°09' E 003°48'0 0.0
2014-Jul-28 05:27N 51°09' E 003°48'0 0.0
2014-Jul-28 04:28N 51°09' E 003°48'0 0.0
2014-Jul-28 03:33N 51°09' E 003°48'0 0.0
2014-Jul-28 02:32N 51°09' E 003°48'0 0.0
2014-Jul-28 01:29N 51°09' E 003°48'0 0.0
2014-Jul-28 00:11N 51°09' E 003°48'0 0.0
2014-Jul-27 23:33N 51°09' E 003°48'0 0.0
2014-Jul-27 22:29N 51°09' E 003°48'0 0.0
2014-Jul-27 21:11N 51°09' E 003°48'0 0.0
2014-Jul-27 20:33N 51°09' E 003°48'0 0.0
2014-Jul-27 19:27N 51°09' E 003°48'0 0.0
2014-Jul-27 18:26N 51°09' E 003°48'0 0.0
2014-Jul-27 17:32N 51°09' E 003°48'0 0.0
2014-Jul-27 16:26N 51°09' E 003°48'0 0.0
2014-Jul-27 15:32N 51°09' E 003°48'0 0.0
2014-Jul-27 14:32N 51°09' E 003°48'0 0.0
2014-Jul-27 13:28N 51°09' E 003°48'0 0.0
2014-Jul-27 12:28N 51°09' E 003°48'0 0.0
2014-Jul-27 11:14N 51°09' E 003°48'0 0.0
2014-Jul-27 10:21N 51°09' E 003°48'0 0.0
2014-Jul-27 09:33N 51°09' E 003°48'0 0.0
2014-Jul-27 08:33N 51°09' E 003°48'0 0.0
2014-Jul-27 07:26N 51°09' E 003°48'0 0.0
2014-Jul-27 06:29N 51°09' E 003°48'0 0.0
2014-Jul-27 05:10N 51°09' E 003°48'0 0.0
2014-Jul-27 03:13N 51°09' E 003°48'0 0.0
2014-Jul-27 02:33N 51°09' E 003°48'0 0.0
2014-Jul-27 01:27N 51°09' E 003°48'0 0.0
2014-Jul-27 00:15N 51°09' E 003°48'0 0.0
2014-Jul-26 23:18N 51°09' E 003°48'0 0.0
2014-Jul-26 22:30N 51°09' E 003°48'0 0.0
2014-Jul-26 21:31N 51°09' E 003°48'0 0.0
2014-Jul-26 20:32N 51°09' E 003°48'0 0.0
2014-Jul-26 19:27N 51°09' E 003°48'0 0.0
2014-Jul-26 18:34N 51°09' E 003°48'0 0.0
2014-Jul-26 16:33N 51°09' E 003°48'0 0.0
2014-Jul-26 15:21N 51°09' E 003°48'0 0.0
2014-Jul-26 14:07N 51°09' E 003°48'0 0.0
2014-Jul-26 13:17N 51°09' E 003°48'0 0.0
2014-Jul-26 12:23N 51°09' E 003°48'0 0.0
2014-Jul-26 11:23N 51°09' E 003°48'0 0.0
2014-Jul-26 10:21N 51°09' E 003°48'0 0.0
2014-Jul-26 09:33N 51°09' E 003°48'0 0.0
2014-Jul-26 08:33N 51°09' E 003°48'0 0.0
2014-Jul-26 07:07N 51°09' E 003°48'0 0.0
2014-Jul-26 06:28N 51°09' E 003°48'0 0.0
2014-Jul-26 05:19N 51°09' E 003°48'0 0.0
2014-Jul-26 04:31N 51°09' E 003°48'0 0.0
2014-Jul-26 03:31N 51°09' E 003°48'0 0.0
2014-Jul-26 02:31N 51°09' E 003°48'0 0.0
2014-Jul-26 01:31N 51°09' E 003°48'0 0.0
2014-Jul-26 00:33N 51°09' E 003°48'0 0.0
2014-Jul-25 23:33N 51°09' E 003°48'0 0.0
2014-Jul-25 22:26N 51°09' E 003°48'2 2.1
2014-Jul-25 21:33N 51°11' E 003°48'4 3.5
2014-Jul-25 20:30N 51°14' E 003°48'0 0.0
2014-Jul-25 19:33N 51°14' E 003°48'0 0.0
2014-Jul-25 18:33N 51°14' E 003°48'0 0.0
2014-Jul-25 17:33N 51°14' E 003°48'0 0.0
2014-Jul-25 16:33N 51°14' E 003°48'0 0.0
2014-Jul-25 15:33N 51°14' E 003°48'0 0.0
2014-Jul-25 14:28N 51°14' E 003°48'0 0.0
2014-Jul-25 13:22N 51°14' E 003°48'0 0.0
2014-Jul-25 12:32N 51°14' E 003°48'0 0.0
2014-Jul-25 11:30N 51°14' E 003°48'0 0.0
2014-Jul-25 10:30N 51°14' E 003°48'0 0.0
2014-Jul-25 09:30N 51°14' E 003°48'0 0.0
2014-Jul-25 08:27N 51°14' E 003°48'0 0.0
2014-Jul-25 07:30N 51°14' E 003°48'0 0.0
2014-Jul-25 06:33N 51°14' E 003°48'0 0.0
2014-Jul-25 05:30N 51°14' E 003°48'0 0.0
2014-Jul-25 04:33N 51°14' E 003°48'0 0.3
2014-Jul-25 03:34N 51°14' E 003°49'1 1.5
2014-Jul-25 02:33N 51°16' E 003°50'0 0.0
2014-Jul-25 01:34N 51°16' E 003°50'0 0.0
2014-Jul-25 00:34N 51°16' E 003°50'0 0.0
2014-Jul-24 23:34N 51°16' E 003°50'0 0.0
2014-Jul-24 22:33N 51°16' E 003°50'0 0.0
2014-Jul-24 21:33N 51°16' E 003°50'0 0.0
2014-Jul-24 20:33N 51°16' E 003°50'0 0.0
2014-Jul-24 19:33N 51°16' E 003°50'0 0.0
2014-Jul-24 18:33N 51°16' E 003°50'0 0.0
2014-Jul-24 17:33N 51°16' E 003°50'0 0.0
2014-Jul-24 16:33N 51°16' E 003°50'0 0.0
2014-Jul-24 15:34N 51°16' E 003°50'0 0.0
2014-Jul-24 14:33N 51°16' E 003°50'0 0.0
2014-Jul-24 13:28N 51°16' E 003°50'0 0.0
2014-Jul-24 12:34N 51°16' E 003°50'0 0.0
2014-Jul-24 11:33N 51°16' E 003°50'0 0.0
2014-Jul-24 10:34N 51°16' E 003°50'0 0.0
2014-Jul-24 09:34N 51°16' E 003°50'0 0.0
2014-Jul-24 08:33N 51°16' E 003°50'0 0.0
2014-Jul-24 07:34N 51°16' E 003°50'0 0.0
2014-Jul-24 06:33N 51°16' E 003°50'0 0.0
2014-Jul-24 05:33N 51°16' E 003°50'0 0.0
2014-Jul-24 04:33N 51°16' E 003°50'0 0.0
2014-Jul-24 03:33N 51°16' E 003°50'0 0.0
2014-Jul-24 02:34N 51°16' E 003°50'0 0.0
2014-Jul-24 01:34N 51°16' E 003°50'0 0.0
2014-Jul-24 00:33N 51°16' E 003°50'0 0.0
2014-Jul-23 23:33N 51°16' E 003°50'0 0.0
2014-Jul-23 22:34N 51°16' E 003°50'0 0.0
2014-Jul-23 21:33N 51°16' E 003°50'0 0.0
2014-Jul-23 20:34N 51°16' E 003°50'0 0.0
2014-Jul-23 19:33N 51°16' E 003°50'0 0.0
2014-Jul-23 18:33N 51°16' E 003°50'0 0.0
2014-Jul-23 17:33N 51°16' E 003°50'0 0.0
2014-Jul-23 16:33N 51°16' E 003°50'0 0.0
2014-Jul-23 15:33N 51°16' E 003°50'0 0.0
2014-Jul-23 14:33N 51°16' E 003°50'0 0.0
2014-Jul-23 13:33N 51°16' E 003°50'0 0.0
2014-Jul-23 12:33N 51°16' E 003°50'0 0.0
2014-Jul-23 11:33N 51°16' E 003°50'0 0.0
2014-Jul-23 10:34N 51°16' E 003°50'0 0.0
2014-Jul-23 09:33N 51°16' E 003°50'0 0.0
2014-Jul-23 08:34N 51°16' E 003°50'0 0.0
2014-Jul-23 07:33N 51°16' E 003°50'0 0.0
2014-Jul-23 06:33N 51°16' E 003°50'0 0.0
2014-Jul-23 05:34N 51°16' E 003°50'0 0.0
2014-Jul-23 04:33N 51°16' E 003°50'0 0.0
2014-Jul-23 03:33N 51°16' E 003°50'0 0.0
2014-Jul-23 02:33N 51°16' E 003°50'0 0.0
2014-Jul-23 01:34N 51°16' E 003°50'0 0.0
2014-Jul-23 00:33N 51°16' E 003°50'0 0.0
2014-Jul-22 23:34N 51°16' E 003°50'0 0.0
2014-Jul-22 22:34N 51°16' E 003°50'0 0.0
2014-Jul-22 21:33N 51°16' E 003°50'0 0.0
2014-Jul-22 20:33N 51°16' E 003°50'0 0.0
2014-Jul-22 19:34N 51°16' E 003°50'0 0.0
2014-Jul-22 18:33N 51°16' E 003°50'0 0.0
2014-Jul-22 17:34N 51°16' E 003°50'0 0.0
2014-Jul-22 16:32N 51°16' E 003°50'0 0.0
2014-Jul-22 15:33N 51°16' E 003°50'0 0.0
2014-Jul-22 14:33N 51°16' E 003°50'0 0.0
2014-Jul-22 13:33N 51°16' E 003°50'0 0.0
2014-Jul-22 12:33N 51°16' E 003°50'0 0.0
2014-Jul-22 11:34N 51°16' E 003°50'0 0.0
2014-Jul-22 10:34N 51°16' E 003°50'2 1.7
2014-Jul-22 09:34N 51°14' E 003°49'0 0.1
2014-Jul-22 08:29N 51°14' E 003°48'0 0.0
2014-Jul-22 06:32N 51°14' E 003°48'0 0.0
2014-Jul-22 05:28N 51°14' E 003°48'0 0.0
2014-Jul-22 04:25N 51°14' E 003°48'0 0.0
2014-Jul-22 03:28N 51°14' E 003°48'0 0.0
2014-Jul-22 02:31N 51°14' E 003°48'0 0.0
2014-Jul-22 01:28N 51°14' E 003°48'0 0.0
2014-Jul-22 00:31N 51°14' E 003°48'0 0.0
2014-Jul-21 23:25N 51°14' E 003°48'0 0.0
2014-Jul-21 22:11N 51°14' E 003°48'0 0.0
2014-Jul-21 21:33N 51°14' E 003°48'3 3.3
2014-Jul-21 20:34N 51°11' E 003°48'2 7.0
2014-Jul-21 20:18N 51°09' E 003°47'1 0.7
2014-Jul-21 19:26N 51°09' E 003°48'0 0.0
2014-Jul-21 18:32N 51°09' E 003°48'0 0.0
2014-Jul-21 17:32N 51°09' E 003°48'0 0.0
2014-Jul-21 16:32N 51°09' E 003°48'0 0.0
2014-Jul-21 15:29N 51°09' E 003°48'0 0.0
2014-Jul-21 14:32N 51°09' E 003°48'0 0.0
2014-Jul-21 13:23N 51°09' E 003°48'0 0.0
2014-Jul-21 12:32N 51°09' E 003°48'0 0.0
2014-Jul-21 11:32N 51°09' E 003°48'0 0.0
2014-Jul-21 10:28N 51°09' E 003°48'0 0.0
2014-Jul-21 09:33N 51°09' E 003°48'0 0.0
2014-Jul-21 08:27N 51°09' E 003°48'0 0.0
2014-Jul-21 07:33N 51°09' E 003°48'0 0.0
2014-Jul-21 06:33N 51°09' E 003°48'0 0.0
2014-Jul-21 05:29N 51°09' E 003°48'0 0.0
2014-Jul-21 04:29N 51°09' E 003°48'0 0.0
2014-Jul-21 03:29N 51°09' E 003°48'0 0.0
2014-Jul-21 02:29N 51°09' E 003°48'0 0.0
2014-Jul-21 01:23N 51°09' E 003°48'0 0.0
2014-Jul-21 00:29N 51°09' E 003°48'0 0.0
2014-Jul-20 23:29N 51°09' E 003°48'0 0.0
2014-Jul-20 22:29N 51°09' E 003°48'0 0.0
2014-Jul-20 21:29N 51°09' E 003°48'0 0.0
2014-Jul-20 20:29N 51°09' E 003°48'0 0.0
2014-Jul-20 19:29N 51°09' E 003°48'0 0.0
2014-Jul-20 18:23N 51°09' E 003°48'0 0.0
2014-Jul-20 17:29N 51°09' E 003°48'0 0.0
2014-Jul-20 16:29N 51°09' E 003°48'0 0.0
2014-Jul-20 15:23N 51°09' E 003°48'0 0.0
2014-Jul-20 14:29N 51°09' E 003°48'0 0.0
2014-Jul-20 13:28N 51°09' E 003°48'0 0.0
2014-Jul-20 12:28N 51°09' E 003°48'0 0.0
2014-Jul-20 11:28N 51°09' E 003°48'0 0.0
2014-Jul-20 10:32N 51°09' E 003°48'  
Track history (hours):
 
Tides and Currents Weather Stations Pressure Air Temp Water Temp Dewpoint Dewpoint Depression Visibility Wind Speed Wind Dir Waves Ship Positions

John_paul K

Last reported at 2014-Jul-30 10:12 UTC. Time now 2014-Jul-30 11:06 UTC.
Position N 50°21' W 000°57'.

Length 90 m; draft 4.9 m.

Type: Cargo ship. MMSI: 245181000.

Date/timePositionNaut miles runAvg speedWind from/ knotsBaromVisibWave heightAir tempDewpointWater temp
2014-Jul-30 10:12N 50°21' W 000°57'51 9.0
2014-Jul-30 04:33N 50°36' E 000°19'1010.3
2014-Jul-30 03:33N 50°39' E 000°34'10 9.5
2014-Jul-30 02:34N 50°44' E 000°47'8 8.3
2014-Jul-30 01:33N 50°49' E 000°58'8 7.5
2014-Jul-30 00:33N 50°54' E 001°07'8 7.8
2014-Jul-29 23:34N 50°59' E 001°16'9 9.3
2014-Jul-29 22:33N 51°05' E 001°28'1211.8
2014-Jul-29 21:33N 51°12' E 001°42'1211.7
2014-Jul-29 20:33N 51°21' E 001°55'8 8.2
2014-Jul-29 19:33N 51°23' E 002°08'9 9.3
2014-Jul-29 18:33N 51°22' E 002°22'2020.3
2014-Jul-29 17:33N 51°22' E 002°55'1 1.3
2014-Jul-29 16:32N 51°22' E 002°53'1212.1
2014-Jul-29 15:32N 51°23' E 003°12'9 8.8
2014-Jul-29 14:33N 51°24' E 003°26'8 7.9
2014-Jul-29 13:33N 51°25' E 003°38'8 8.5
2014-Jul-29 12:33N 51°20' E 003°49'1 1.5
2014-Jul-29 11:33N 51°18' E 003°50'7 6.7
2014-Jul-29 10:33N 51°12' E 003°48'3 2.5
2014-Jul-29 09:19N 51°09' E 003°48'0 0.0
2014-Jul-29 08:31N 51°09' E 003°48'0 0.0
2014-Jul-29 07:19N 51°09' E 003°48'0 0.0
2014-Jul-29 06:25N 51°09' E 003°48'0 0.0
2014-Jul-29 05:33N 51°09' E 003°48'0 0.0
2014-Jul-29 04:32N 51°09' E 003°48'0 0.0
2014-Jul-29 03:32N 51°09' E 003°48'0 0.0
2014-Jul-29 02:32N 51°09' E 003°48'0 0.0
2014-Jul-29 01:32N 51°09' E 003°48'0 0.0
2014-Jul-29 00:29N 51°09' E 003°48'0 0.0
2014-Jul-28 23:26N 51°09' E 003°48'0 0.0
2014-Jul-28 22:23N 51°09' E 003°48'0 0.0
2014-Jul-28 21:28N 51°09' E 003°48'0 0.0
2014-Jul-28 20:29N 51°09' E 003°48'0 0.0
2014-Jul-28 19:28N 51°09' E 003°48'0 0.0
2014-Jul-28 18:22N 51°09' E 003°48'0 0.0
2014-Jul-28 17:22N 51°09' E 003°48'0 0.0
2014-Jul-28 16:31N 51°09' E 003°48'0 0.0
2014-Jul-28 15:31N 51°09' E 003°48'0 0.0
2014-Jul-28 14:22N 51°09' E 003°48'0 0.0
2014-Jul-28 13:22N 51°09' E 003°48'0 0.0
2014-Jul-28 12:31N 51°09' E 003°48'0 0.0
2014-Jul-28 11:33N 51°09' E 003°48'0 0.0
2014-Jul-28 09:28N 51°09' E 003°48'0 0.0
2014-Jul-28 08:28N 51°09' E 003°48'0 0.0
2014-Jul-28 07:33N 51°09' E 003°48'0 0.0
2014-Jul-28 06:15N 51°09' E 003°48'0 0.0
2014-Jul-28 05:27N 51°09' E 003°48'0 0.0
2014-Jul-28 04:28N 51°09' E 003°48'0 0.0
2014-Jul-28 03:33N 51°09' E 003°48'0 0.0
2014-Jul-28 02:32N 51°09' E 003°48'0 0.0
2014-Jul-28 01:29N 51°09' E 003°48'0 0.0
2014-Jul-28 00:11N 51°09' E 003°48'0 0.0
2014-Jul-27 23:33N 51°09' E 003°48'0 0.0
2014-Jul-27 22:29N 51°09' E 003°48'0 0.0
2014-Jul-27 21:11N 51°09' E 003°48'0 0.0
2014-Jul-27 20:33N 51°09' E 003°48'0 0.0
2014-Jul-27 19:27N 51°09' E 003°48'0 0.0
2014-Jul-27 18:26N 51°09' E 003°48'0 0.0
2014-Jul-27 17:32N 51°09' E 003°48'0 0.0
2014-Jul-27 16:26N 51°09' E 003°48'0 0.0
2014-Jul-27 15:32N 51°09' E 003°48'0 0.0
2014-Jul-27 14:32N 51°09' E 003°48'0 0.0
2014-Jul-27 13:28N 51°09' E 003°48'0 0.0
2014-Jul-27 12:28N 51°09' E 003°48'0 0.0
2014-Jul-27 11:14N 51°09' E 003°48'0 0.0
2014-Jul-27 10:21N 51°09' E 003°48'0 0.0
2014-Jul-27 09:33N 51°09' E 003°48'0 0.0
2014-Jul-27 08:33N 51°09' E 003°48'0 0.0
2014-Jul-27 07:26N 51°09' E 003°48'0 0.0
2014-Jul-27 06:29N 51°09' E 003°48'0 0.0
2014-Jul-27 05:10N 51°09' E 003°48'0 0.0
2014-Jul-27 03:13N 51°09' E 003°48'0 0.0
2014-Jul-27 02:33N 51°09' E 003°48'0 0.0
2014-Jul-27 01:27N 51°09' E 003°48'0 0.0
2014-Jul-27 00:15N 51°09' E 003°48'0 0.0
2014-Jul-26 23:18N 51°09' E 003°48'0 0.0
2014-Jul-26 22:30N 51°09' E 003°48'0 0.0
2014-Jul-26 21:31N 51°09' E 003°48'0 0.0
2014-Jul-26 20:32N 51°09' E 003°48'0 0.0
2014-Jul-26 19:27N 51°09' E 003°48'0 0.0
2014-Jul-26 18:34N 51°09' E 003°48'0 0.0
2014-Jul-26 16:33N 51°09' E 003°48'0 0.0
2014-Jul-26 15:21N 51°09' E 003°48'0 0.0
2014-Jul-26 14:07N 51°09' E 003°48'0 0.0
2014-Jul-26 13:17N 51°09' E 003°48'0 0.0
2014-Jul-26 12:23N 51°09' E 003°48'0 0.0
2014-Jul-26 11:23N 51°09' E 003°48'0 0.0
2014-Jul-26 10:21N 51°09' E 003°48'0 0.0
2014-Jul-26 09:33N 51°09' E 003°48'0 0.0
2014-Jul-26 08:33N 51°09' E 003°48'0 0.0
2014-Jul-26 07:07N 51°09' E 003°48'0 0.0
2014-Jul-26 06:28N 51°09' E 003°48'0 0.0
2014-Jul-26 05:19N 51°09' E 003°48'0 0.0
2014-Jul-26 04:31N 51°09' E 003°48'0 0.0
2014-Jul-26 03:31N 51°09' E 003°48'0 0.0
2014-Jul-26 02:31N 51°09' E 003°48'0 0.0
2014-Jul-26 01:31N 51°09' E 003°48'0 0.0
2014-Jul-26 00:33N 51°09' E 003°48'0 0.0
2014-Jul-25 23:33N 51°09' E 003°48'0 0.0
2014-Jul-25 22:26N 51°09' E 003°48'2 2.1
2014-Jul-25 21:33N 51°11' E 003°48'4 3.5
2014-Jul-25 20:30N 51°14' E 003°48'0 0.0
2014-Jul-25 19:33N 51°14' E 003°48'0 0.0
2014-Jul-25 18:33N 51°14' E 003°48'0 0.0
2014-Jul-25 17:33N 51°14' E 003°48'0 0.0
2014-Jul-25 16:33N 51°14' E 003°48'0 0.0
2014-Jul-25 15:33N 51°14' E 003°48'0 0.0
2014-Jul-25 14:28N 51°14' E 003°48'0 0.0
2014-Jul-25 13:22N 51°14' E 003°48'0 0.0
2014-Jul-25 12:32N 51°14' E 003°48'0 0.0
2014-Jul-25 11:30N 51°14' E 003°48'0 0.0
2014-Jul-25 10:30N 51°14' E 003°48'0 0.0
2014-Jul-25 09:30N 51°14' E 003°48'0 0.0
2014-Jul-25 08:27N 51°14' E 003°48'0 0.0
2014-Jul-25 07:30N 51°14' E 003°48'0 0.0
2014-Jul-25 06:33N 51°14' E 003°48'0 0.0
2014-Jul-25 05:30N 51°14' E 003°48'0 0.0
2014-Jul-25 04:33N 51°14' E 003°48'0 0.3
2014-Jul-25 03:34N 51°14' E 003°49'1 1.5
2014-Jul-25 02:33N 51°16' E 003°50'0 0.0
2014-Jul-25 01:34N 51°16' E 003°50'0 0.0
2014-Jul-25 00:34N 51°16' E 003°50'0 0.0
2014-Jul-24 23:34N 51°16' E 003°50'0 0.0
2014-Jul-24 22:33N 51°16' E 003°50'0 0.0
2014-Jul-24 21:33N 51°16' E 003°50'0 0.0
2014-Jul-24 20:33N 51°16' E 003°50'0 0.0
2014-Jul-24 19:33N 51°16' E 003°50'0 0.0
2014-Jul-24 18:33N 51°16' E 003°50'0 0.0
2014-Jul-24 17:33N 51°16' E 003°50'0 0.0
2014-Jul-24 16:33N 51°16' E 003°50'0 0.0
2014-Jul-24 15:34N 51°16' E 003°50'0 0.0
2014-Jul-24 14:33N 51°16' E 003°50'0 0.0
2014-Jul-24 13:28N 51°16' E 003°50'0 0.0
2014-Jul-24 12:34N 51°16' E 003°50'0 0.0
2014-Jul-24 11:33N 51°16' E 003°50'0 0.0
2014-Jul-24 10:34N 51°16' E 003°50'0 0.0
2014-Jul-24 09:34N 51°16' E 003°50'0 0.0
2014-Jul-24 08:33N 51°16' E 003°50'0 0.0
2014-Jul-24 07:34N 51°16' E 003°50'0 0.0
2014-Jul-24 06:33N 51°16' E 003°50'0 0.0
2014-Jul-24 05:33N 51°16' E 003°50'0 0.0
2014-Jul-24 04:33N 51°16' E 003°50'0 0.0
2014-Jul-24 03:33N 51°16' E 003°50'0 0.0
2014-Jul-24 02:34N 51°16' E 003°50'0 0.0
2014-Jul-24 01:34N 51°16' E 003°50'0 0.0
2014-Jul-24 00:33N 51°16' E 003°50'0 0.0
2014-Jul-23 23:33N 51°16' E 003°50'0 0.0
2014-Jul-23 22:34N 51°16' E 003°50'0 0.0
2014-Jul-23 21:33N 51°16' E 003°50'0 0.0
2014-Jul-23 20:34N 51°16' E 003°50'0 0.0
2014-Jul-23 19:33N 51°16' E 003°50'0 0.0
2014-Jul-23 18:33N 51°16' E 003°50'0 0.0
2014-Jul-23 17:33N 51°16' E 003°50'0 0.0
2014-Jul-23 16:33N 51°16' E 003°50'0 0.0
2014-Jul-23 15:33N 51°16' E 003°50'0 0.0
2014-Jul-23 14:33N 51°16' E 003°50'0 0.0
2014-Jul-23 13:33N 51°16' E 003°50'0 0.0
2014-Jul-23 12:33N 51°16' E 003°50'0 0.0
2014-Jul-23 11:33N 51°16' E 003°50'0 0.0
2014-Jul-23 10:34N 51°16' E 003°50'0 0.0
2014-Jul-23 09:33N 51°16' E 003°50'0 0.0
2014-Jul-23 08:34N 51°16' E 003°50'0 0.0
2014-Jul-23 07:33N 51°16' E 003°50'0 0.0
2014-Jul-23 06:33N 51°16' E 003°50'0 0.0
2014-Jul-23 05:34N 51°16' E 003°50'0 0.0
2014-Jul-23 04:33N 51°16' E 003°50'0 0.0
2014-Jul-23 03:33N 51°16' E 003°50'0 0.0
2014-Jul-23 02:33N 51°16' E 003°50'0 0.0
2014-Jul-23 01:34N 51°16' E 003°50'0 0.0
2014-Jul-23 00:33N 51°16' E 003°50'0 0.0
2014-Jul-22 23:34N 51°16' E 003°50'0 0.0
2014-Jul-22 22:34N 51°16' E 003°50'0 0.0
2014-Jul-22 21:33N 51°16' E 003°50'0 0.0
2014-Jul-22 20:33N 51°16' E 003°50'0 0.0
2014-Jul-22 19:34N 51°16' E 003°50'0 0.0
2014-Jul-22 18:33N 51°16' E 003°50'0 0.0
2014-Jul-22 17:34N 51°16' E 003°50'0 0.0
2014-Jul-22 16:32N 51°16' E 003°50'0 0.0
2014-Jul-22 15:33N 51°16' E 003°50'0 0.0
2014-Jul-22 14:33N 51°16' E 003°50'0 0.0
2014-Jul-22 13:33N 51°16' E 003°50'0 0.0
2014-Jul-22 12:33N 51°16' E 003°50'0 0.0
2014-Jul-22 11:34N 51°16' E 003°50'0 0.0
2014-Jul-22 10:34N 51°16' E 003°50'2 1.7
2014-Jul-22 09:34N 51°14' E 003°49'0 0.1
2014-Jul-22 08:29N 51°14' E 003°48'0 0.0
2014-Jul-22 06:32N 51°14' E 003°48'0 0.0
2014-Jul-22 05:28N 51°14' E 003°48'0 0.0
2014-Jul-22 04:25N 51°14' E 003°48'0 0.0
2014-Jul-22 03:28N 51°14' E 003°48'0 0.0
2014-Jul-22 02:31N 51°14' E 003°48'0 0.0
2014-Jul-22 01:28N 51°14' E 003°48'0 0.0
2014-Jul-22 00:31N 51°14' E 003°48'0 0.0
2014-Jul-21 23:25N 51°14' E 003°48'0 0.0
2014-Jul-21 22:11N 51°14' E 003°48'0 0.0
2014-Jul-21 21:33N 51°14' E 003°48'3 3.3
2014-Jul-21 20:34N 51°11' E 003°48'2 7.0
2014-Jul-21 20:18N 51°09' E 003°47'1 0.7
2014-Jul-21 19:26N 51°09' E 003°48'0 0.0
2014-Jul-21 18:32N 51°09' E 003°48'0 0.0
2014-Jul-21 17:32N 51°09' E 003°48'0 0.0
2014-Jul-21 16:32N 51°09' E 003°48'0 0.0
2014-Jul-21 15:29N 51°09' E 003°48'0 0.0
2014-Jul-21 14:32N 51°09' E 003°48'0 0.0
2014-Jul-21 13:23N 51°09' E 003°48'0 0.0
2014-Jul-21 12:32N 51°09' E 003°48'0 0.0
2014-Jul-21 11:32N 51°09' E 003°48'0 0.0
2014-Jul-21 10:28N 51°09' E 003°48'0 0.0
2014-Jul-21 09:33N 51°09' E 003°48'0 0.0
2014-Jul-21 08:27N 51°09' E 003°48'0 0.0
2014-Jul-21 07:33N 51°09' E 003°48'0 0.0
2014-Jul-21 06:33N 51°09' E 003°48'0 0.0
2014-Jul-21 05:29N 51°09' E 003°48'0 0.0
2014-Jul-21 04:29N 51°09' E 003°48'0 0.0
2014-Jul-21 03:29N 51°09' E 003°48'0 0.0
2014-Jul-21 02:29N 51°09' E 003°48'0 0.0
2014-Jul-21 01:23N 51°09' E 003°48'0 0.0
2014-Jul-21 00:29N 51°09' E 003°48'0 0.0
2014-Jul-20 23:29N 51°09' E 003°48'0 0.0
2014-Jul-20 22:29N 51°09' E 003°48'0 0.0
2014-Jul-20 21:29N 51°09' E 003°48'0 0.0
2014-Jul-20 20:29N 51°09' E 003°48'0 0.0
2014-Jul-20 19:29N 51°09' E 003°48'0 0.0
2014-Jul-20 18:23N 51°09' E 003°48'0 0.0
2014-Jul-20 17:29N 51°09' E 003°48'0 0.0
2014-Jul-20 16:29N 51°09' E 003°48'0 0.0
2014-Jul-20 15:23N 51°09' E 003°48'0 0.0
2014-Jul-20 14:29N 51°09' E 003°48'0 0.0
2014-Jul-20 13:28N 51°09' E 003°48'0 0.0
2014-Jul-20 12:28N 51°09' E 003°48'0 0.0
2014-Jul-20 11:28N 51°09' E 003°48'0 0.0
2014-Jul-20 10:32N 51°09' E 003°48'  

Dump ship's entire track history